Anaheim, California
Current Conditions -  °F | °C
As of 10:15 PM on Saturday 22 Nov 2014 (Local Time) from KFUL Reporting Station
Scattered Clouds Scattered Clouds  
Wind Chill: 14°   Ceiling: Unl
Heat Index: 14°   Visibility: 10mi
Dew Point: 13°   Wind: 6mph
Humidity: 90%   Direction: 70°ENE
Pressure: 30.03"   Gusts: NA
Location:  33.83°N, 117.91°W
Report Text: KFUL 230615Z 07005KT 10SM SCT014 14/13 A3003 RMK AO2 T01440128
Loading
Personal Weather Stations






























Interactive Weather Map New forecast layout! Learn more

10-Day Weather Forecast

Advertisements
Track Severe Weather on mobile